sensor_id;sensor_type;location;lat;lon;timestamp;P1;durP1;ratioP1;P2;durP2;ratioP2
46090;SDS011;31826;53.572;10.170;2022-11-15T00:00:28;42.10;;;18.50;;
46090;SDS011;31826;53.572;10.170;2022-11-15T00:02:54;41.72;;;19.67;;
46090;SDS011;31826;53.572;10.170;2022-11-15T00:05:20;43.03;;;18.52;;
46090;SDS011;31826;53.572;10.170;2022-11-15T00:07:46;40.80;;;17.95;;
46090;SDS011;31826;53.572;10.170;2022-11-15T00:10:12;46.80;;;19.83;;
46090;SDS011;31826;53.572;10.170;2022-11-15T00:12:38;37.45;;;18.30;;
46090;SDS011;31826;53.572;10.170;2022-11-15T00:15:03;42.28;;;17.95;;
46090;SDS011;31826;53.572;10.170;2022-11-15T00:17:30;41.20;;;17.70;;
46090;SDS011;31826;53.572;10.170;2022-11-15T00:19:55;39.87;;;17.83;;
46090;SDS011;31826;53.572;10.170;2022-11-15T00:22:21;38.73;;;17.70;;
46090;SDS011;31826;53.572;10.170;2022-11-15T00:24:47;40.90;;;17.80;;
46090;SDS011;31826;53.572;10.170;2022-11-15T00:27:13;38.87;;;18.20;;
46090;SDS011;31826;53.572;10.170;2022-11-15T00:29:39;42.83;;;19.50;;
46090;SDS011;31826;53.572;10.170;2022-11-15T00:32:09;44.97;;;20.05;;
46090;SDS011;31826;53.572;10.170;2022-11-15T00:34:35;44.45;;;20.45;;
46090;SDS011;31826;53.572;10.170;2022-11-15T00:37:01;41.58;;;19.52;;
46090;SDS011;31826;53.572;10.170;2022-11-15T00:39:26;45.67;;;19.43;;
46090;SDS011;31826;53.572;10.170;2022-11-15T00:41:52;47.08;;;21.20;;
46090;SDS011;31826;53.572;10.170;2022-11-15T00:44:18;44.30;;;19.42;;
46090;SDS011;31826;53.572;10.170;2022-11-15T00:46:43;38.13;;;18.17;;
46090;SDS011;31826;53.572;10.170;2022-11-15T00:49:09;38.83;;;17.58;;
46090;SDS011;31826;53.572;10.170;2022-11-15T00:51:35;46.45;;;20.65;;
46090;SDS011;31826;53.572;10.170;2022-11-15T00:54:01;42.65;;;19.38;;
46090;SDS011;31826;53.572;10.170;2022-11-15T00:56:26;40.60;;;18.08;;
46090;SDS011;31826;53.572;10.170;2022-11-15T00:58:52;39.90;;;18.15;;
46090;SDS011;31826;53.572;10.170;2022-11-15T01:01:18;43.58;;;19.05;;
46090;SDS011;31826;53.572;10.170;2022-11-15T01:03:44;41.17;;;18.85;;
46090;SDS011;31826;53.572;10.170;2022-11-15T01:06:10;37.80;;;17.65;;
46090;SDS011;31826;53.572;10.170;2022-11-15T01:08:37;41.15;;;18.63;;
46090;SDS011;31826;53.572;10.170;2022-11-15T01:11:08;43.63;;;19.48;;
46090;SDS011;31826;53.572;10.170;2022-11-15T01:13:36;41.13;;;18.27;;
46090;SDS011;31826;53.572;10.170;2022-11-15T01:16:14;40.33;;;18.38;;
46090;SDS011;31826;53.572;10.170;2022-11-15T01:18:44;40.03;;;18.55;;
46090;SDS011;31826;53.572;10.170;2022-11-15T01:21:12;40.85;;;17.63;;
46090;SDS011;31826;53.572;10.170;2022-11-15T01:23:39;37.45;;;17.45;;
46090;SDS011;31826;53.572;10.170;2022-11-15T01:26:06;43.15;;;18.27;;
46090;SDS011;31826;53.572;10.170;2022-11-15T01:28:33;39.97;;;17.77;;
46090;SDS011;31826;53.572;10.170;2022-11-15T01:31:01;38.78;;;17.65;;
46090;SDS011;31826;53.572;10.170;2022-11-15T01:33:29;41.15;;;17.88;;
46090;SDS011;31826;53.572;10.170;2022-11-15T01:35:55;40.97;;;18.73;;
46090;SDS011;31826;53.572;10.170;2022-11-15T01:38:21;35.30;;;16.27;;
46090;SDS011;31826;53.572;10.170;2022-11-15T01:40:47;36.07;;;16.57;;
46090;SDS011;31826;53.572;10.170;2022-11-15T01:43:23;37.35;;;18.27;;
46090;SDS011;31826;53.572;10.170;2022-11-15T01:45:52;39.28;;;16.40;;
46090;SDS011;31826;53.572;10.170;2022-11-15T01:48:25;38.78;;;17.55;;
46090;SDS011;31826;53.572;10.170;2022-11-15T01:50:55;41.97;;;17.40;;
46090;SDS011;31826;53.572;10.170;2022-11-15T01:53:22;34.78;;;16.27;;
46090;SDS011;31826;53.572;10.170;2022-11-15T01:55:50;36.17;;;16.30;;
46090;SDS011;31826;53.572;10.170;2022-11-15T01:58:15;38.73;;;17.37;;
46090;SDS011;31826;53.572;10.170;2022-11-15T02:00:41;38.27;;;17.50;;
46090;SDS011;31826;53.572;10.170;2022-11-15T02:03:07;35.33;;;15.27;;
46090;SDS011;31826;53.572;10.170;2022-11-15T02:05:35;33.28;;;15.98;;
46090;SDS011;31826;53.572;10.170;2022-11-15T02:08:02;32.88;;;16.20;;
46090;SDS011;31826;53.572;10.170;2022-11-15T02:10:28;35.78;;;16.50;;
46090;SDS011;31826;53.572;10.170;2022-11-15T02:12:54;37.17;;;16.80;;
46090;SDS011;31826;53.572;10.170;2022-11-15T02:15:21;32.15;;;15.77;;
46090;SDS011;31826;53.572;10.170;2022-11-15T02:29:02;35.88;;;16.27;;
46090;SDS011;31826;53.572;10.170;2022-11-15T02:31:45;31.65;;;15.30;;
46090;SDS011;31826;53.572;10.170;2022-11-15T02:37:21;32.00;;;14.95;;
46090;SDS011;31826;53.572;10.170;2022-11-15T02:40:07;35.55;;;15.45;;
46090;SDS011;31826;53.572;10.170;2022-11-15T02:42:56;31.27;;;15.20;;
46090;SDS011;31826;53.572;10.170;2022-11-15T02:45:47;32.97;;;15.30;;
46090;SDS011;31826;53.572;10.170;2022-11-15T02:48:16;35.95;;;15.90;;
46090;SDS011;31826;53.572;10.170;2022-11-15T02:50:43;32.17;;;14.32;;
46090;SDS011;31826;53.572;10.170;2022-11-15T02:53:10;31.63;;;14.23;;
46090;SDS011;31826;53.572;10.170;2022-11-15T02:55:37;30.17;;;14.40;;
46090;SDS011;31826;53.572;10.170;2022-11-15T03:06:25;31.30;;;15.57;;
46090;SDS011;31826;53.572;10.170;2022-11-15T03:09:24;31.30;;;14.82;;
46090;SDS011;31826;53.572;10.170;2022-11-15T03:12:21;30.13;;;15.07;;
46090;SDS011;31826;53.572;10.170;2022-11-15T03:14:54;33.05;;;14.98;;
46090;SDS011;31826;53.572;10.170;2022-11-15T03:17:29;34.75;;;15.68;;
46090;SDS011;31826;53.572;10.170;2022-11-15T03:20:00;34.08;;;15.27;;
46090;SDS011;31826;53.572;10.170;2022-11-15T03:22:29;30.05;;;13.98;;
46090;SDS011;31826;53.572;10.170;2022-11-15T03:25:00;33.42;;;14.60;;
46090;SDS011;31826;53.572;10.170;2022-11-15T03:27:31;34.67;;;15.48;;
46090;SDS011;31826;53.572;10.170;2022-11-15T03:30:02;31.25;;;14.13;;
46090;SDS011;31826;53.572;10.170;2022-11-15T03:32:32;32.15;;;14.50;;
46090;SDS011;31826;53.572;10.170;2022-11-15T03:37:51;28.15;;;13.30;;
46090;SDS011;31826;53.572;10.170;2022-11-15T03:40:40;26.77;;;12.48;;
46090;SDS011;31826;53.572;10.170;2022-11-15T03:43:21;29.80;;;12.10;;
46090;SDS011;31826;53.572;10.170;2022-11-15T03:46:06;26.23;;;11.30;;
46090;SDS011;31826;53.572;10.170;2022-11-15T03:48:40;24.55;;;11.55;;
46090;SDS011;31826;53.572;10.170;2022-11-15T03:51:14;24.58;;;11.43;;
46090;SDS011;31826;53.572;10.170;2022-11-15T03:53:40;27.83;;;11.75;;
46090;SDS011;31826;53.572;10.170;2022-11-15T03:56:06;25.50;;;11.75;;
46090;SDS011;31826;53.572;10.170;2022-11-15T03:58:32;26.63;;;12.02;;
46090;SDS011;31826;53.572;10.170;2022-11-15T04:00:57;24.83;;;12.50;;
46090;SDS011;31826;53.572;10.170;2022-11-15T04:03:24;24.25;;;11.40;;
46090;SDS011;31826;53.572;10.170;2022-11-15T04:05:50;25.02;;;11.57;;
46090;SDS011;31826;53.572;10.170;2022-11-15T04:08:16;25.40;;;12.27;;
46090;SDS011;31826;53.572;10.170;2022-11-15T04:10:42;30.42;;;13.18;;
46090;SDS011;31826;53.572;10.170;2022-11-15T04:13:07;26.23;;;12.80;;
46090;SDS011;31826;53.572;10.170;2022-11-15T04:15:33;24.88;;;11.32;;
46090;SDS011;31826;53.572;10.170;2022-11-15T04:17:59;22.25;;;10.63;;
46090;SDS011;31826;53.572;10.170;2022-11-15T04:20:26;23.53;;;10.70;;
46090;SDS011;31826;53.572;10.170;2022-11-15T04:23:19;26.13;;;12.40;;
46090;SDS011;31826;53.572;10.170;2022-11-15T04:26:05;25.67;;;12.10;;
46090;SDS011;31826;53.572;10.170;2022-11-15T04:28:39;24.77;;;11.55;;
46090;SDS011;31826;53.572;10.170;2022-11-15T04:31:25;24.52;;;11.73;;
46090;SDS011;31826;53.572;10.170;2022-11-15T04:33:51;26.23;;;12.27;;
46090;SDS011;31826;53.572;10.170;2022-11-15T04:36:17;28.13;;;12.73;;
46090;SDS011;31826;53.572;10.170;2022-11-15T04:39:15;25.65;;;12.73;;
46090;SDS011;31826;53.572;10.170;2022-11-15T04:41:41;24.25;;;12.35;;
46090;SDS011;31826;53.572;10.170;2022-11-15T04:44:06;27.02;;;11.80;;
46090;SDS011;31826;53.572;10.170;2022-11-15T04:46:32;28.48;;;12.40;;
46090;SDS011;31826;53.572;10.170;2022-11-15T04:48:58;27.23;;;12.80;;
46090;SDS011;31826;53.572;10.170;2022-11-15T04:51:24;26.43;;;12.60;;
46090;SDS011;31826;53.572;10.170;2022-11-15T04:53:49;26.00;;;12.27;;
46090;SDS011;31826;53.572;10.170;2022-11-15T04:56:15;25.40;;;12.47;;
46090;SDS011;31826;53.572;10.170;2022-11-15T04:58:41;28.67;;;12.43;;
46090;SDS011;31826;53.572;10.170;2022-11-15T05:01:10;28.50;;;11.88;;
46090;SDS011;31826;53.572;10.170;2022-11-15T05:03:42;29.10;;;12.82;;
46090;SDS011;31826;53.572;10.170;2022-11-15T05:06:28;30.08;;;13.38;;
46090;SDS011;31826;53.572;10.170;2022-11-15T05:08:54;28.25;;;13.15;;
46090;SDS011;31826;53.572;10.170;2022-11-15T05:11:19;29.38;;;13.60;;
46090;SDS011;31826;53.572;10.170;2022-11-15T05:13:46;30.73;;;14.15;;
46090;SDS011;31826;53.572;10.170;2022-11-15T05:16:12;29.92;;;13.75;;
46090;SDS011;31826;53.572;10.170;2022-11-15T05:18:37;36.63;;;16.83;;
46090;SDS011;31826;53.572;10.170;2022-11-15T05:21:08;31.60;;;15.07;;
46090;SDS011;31826;53.572;10.170;2022-11-15T05:23:35;30.97;;;14.10;;
46090;SDS011;31826;53.572;10.170;2022-11-15T05:26:01;28.40;;;13.43;;
46090;SDS011;31826;53.572;10.170;2022-11-15T05:28:28;30.33;;;13.55;;
46090;SDS011;31826;53.572;10.170;2022-11-15T05:30:57;26.23;;;14.10;;
46090;SDS011;31826;53.572;10.170;2022-11-15T05:33:29;30.42;;;13.05;;
46090;SDS011;31826;53.572;10.170;2022-11-15T05:35:56;27.67;;;12.75;;
46090;SDS011;31826;53.572;10.170;2022-11-15T05:38:48;27.38;;;12.70;;
46090;SDS011;31826;53.572;10.170;2022-11-15T05:41:15;28.87;;;14.13;;
46090;SDS011;31826;53.572;10.170;2022-11-15T05:43:43;25.92;;;12.18;;
46090;SDS011;31826;53.572;10.170;2022-11-15T05:46:10;26.80;;;12.70;;
46090;SDS011;31826;53.572;10.170;2022-11-15T05:48:37;27.38;;;13.10;;
46090;SDS011;31826;53.572;10.170;2022-11-15T05:51:06;29.10;;;13.70;;
46090;SDS011;31826;53.572;10.170;2022-11-15T05:53:32;28.55;;;13.23;;
46090;SDS011;31826;53.572;10.170;2022-11-15T05:55:59;27.42;;;13.40;;
46090;SDS011;31826;53.572;10.170;2022-11-15T05:58:25;28.90;;;13.30;;
46090;SDS011;31826;53.572;10.170;2022-11-15T06:00:51;29.23;;;13.17;;
46090;SDS011;31826;53.572;10.170;2022-11-15T06:03:17;28.60;;;13.07;;
46090;SDS011;31826;53.572;10.170;2022-11-15T06:05:42;29.87;;;13.57;;
46090;SDS011;31826;53.572;10.170;2022-11-15T06:08:08;31.70;;;14.70;;
46090;SDS011;31826;53.572;10.170;2022-11-15T06:10:34;27.60;;;13.00;;
46090;SDS011;31826;53.572;10.170;2022-11-15T06:13:00;31.30;;;13.63;;
46090;SDS011;31826;53.572;10.170;2022-11-15T06:15:28;29.13;;;13.40;;
46090;SDS011;31826;53.572;10.170;2022-11-15T06:17:57;29.63;;;14.00;;
46090;SDS011;31826;53.572;10.170;2022-11-15T06:20:23;27.20;;;12.70;;
46090;SDS011;31826;53.572;10.170;2022-11-15T06:22:50;29.75;;;13.50;;
46090;SDS011;31826;53.572;10.170;2022-11-15T06:25:15;27.63;;;12.68;;
46090;SDS011;31826;53.572;10.170;2022-11-15T06:27:41;30.65;;;13.63;;
46090;SDS011;31826;53.572;10.170;2022-11-15T06:30:07;29.10;;;13.95;;
46090;SDS011;31826;53.572;10.170;2022-11-15T06:32:33;30.27;;;14.25;;
46090;SDS011;31826;53.572;10.170;2022-11-15T06:34:59;33.92;;;14.65;;
46090;SDS011;31826;53.572;10.170;2022-11-15T06:37:24;31.88;;;13.95;;
46090;SDS011;31826;53.572;10.170;2022-11-15T06:39:50;31.05;;;13.40;;
46090;SDS011;31826;53.572;10.170;2022-11-15T06:42:16;30.13;;;13.73;;
46090;SDS011;31826;53.572;10.170;2022-11-15T06:44:41;27.53;;;13.60;;
46090;SDS011;31826;53.572;10.170;2022-11-15T06:47:07;29.90;;;14.03;;
46090;SDS011;31826;53.572;10.170;2022-11-15T06:49:33;31.00;;;13.90;;
46090;SDS011;31826;53.572;10.170;2022-11-15T06:51:58;33.88;;;14.25;;
46090;SDS011;31826;53.572;10.170;2022-11-15T06:54:24;31.27;;;14.35;;
46090;SDS011;31826;53.572;10.170;2022-11-15T06:56:50;30.67;;;14.00;;
46090;SDS011;31826;53.572;10.170;2022-11-15T06:59:15;30.95;;;14.02;;
46090;SDS011;31826;53.572;10.170;2022-11-15T07:01:41;29.17;;;14.05;;
46090;SDS011;31826;53.572;10.170;2022-11-15T07:04:07;31.42;;;14.82;;
46090;SDS011;31826;53.572;10.170;2022-11-15T07:06:33;29.65;;;14.45;;
46090;SDS011;31826;53.572;10.170;2022-11-15T07:08:58;28.90;;;13.57;;
46090;SDS011;31826;53.572;10.170;2022-11-15T07:11:24;26.67;;;13.23;;
46090;SDS011;31826;53.572;10.170;2022-11-15T07:13:50;31.03;;;14.53;;
46090;SDS011;31826;53.572;10.170;2022-11-15T07:16:15;28.73;;;13.38;;
46090;SDS011;31826;53.572;10.170;2022-11-15T07:18:41;30.15;;;13.75;;
46090;SDS011;31826;53.572;10.170;2022-11-15T07:21:08;30.00;;;13.60;;
46090;SDS011;31826;53.572;10.170;2022-11-15T07:23:38;31.35;;;15.00;;
46090;SDS011;31826;53.572;10.170;2022-11-15T07:26:04;32.55;;;13.60;;
46090;SDS011;31826;53.572;10.170;2022-11-15T07:28:31;28.83;;;12.90;;
46090;SDS011;31826;53.572;10.170;2022-11-15T07:30:57;29.53;;;14.13;;
46090;SDS011;31826;53.572;10.170;2022-11-15T07:33:22;31.70;;;15.00;;
46090;SDS011;31826;53.572;10.170;2022-11-15T07:35:48;31.63;;;13.67;;
46090;SDS011;31826;53.572;10.170;2022-11-15T07:38:14;30.50;;;13.87;;
46090;SDS011;31826;53.572;10.170;2022-11-15T07:40:44;32.28;;;14.52;;
46090;SDS011;31826;53.572;10.170;2022-11-15T07:43:10;28.70;;;14.25;;
46090;SDS011;31826;53.572;10.170;2022-11-15T07:45:39;30.00;;;14.32;;
46090;SDS011;31826;53.572;10.170;2022-11-15T07:48:09;31.48;;;13.63;;
46090;SDS011;31826;53.572;10.170;2022-11-15T07:50:35;28.23;;;13.38;;
46090;SDS011;31826;53.572;10.170;2022-11-15T07:53:01;27.02;;;13.35;;
46090;SDS011;31826;53.572;10.170;2022-11-15T07:55:27;27.80;;;13.60;;
46090;SDS011;31826;53.572;10.170;2022-11-15T07:58:27;29.77;;;14.05;;
46090;SDS011;31826;53.572;10.170;2022-11-15T08:00:46;28.50;;;13.53;;
46090;SDS011;31826;53.572;10.170;2022-11-15T08:03:13;28.93;;;13.20;;
46090;SDS011;31826;53.572;10.170;2022-11-15T08:05:40;27.63;;;12.85;;
46090;SDS011;31826;53.572;10.170;2022-11-15T08:08:07;27.20;;;13.30;;
46090;SDS011;31826;53.572;10.170;2022-11-15T08:10:34;28.83;;;13.13;;
46090;SDS011;31826;53.572;10.170;2022-11-15T08:13:01;28.13;;;13.00;;
46090;SDS011;31826;53.572;10.170;2022-11-15T08:15:32;26.75;;;12.48;;
46090;SDS011;31826;53.572;10.170;2022-11-15T08:17:59;27.75;;;12.93;;
46090;SDS011;31826;53.572;10.170;2022-11-15T08:20:27;24.90;;;12.48;;
46090;SDS011;31826;53.572;10.170;2022-11-15T08:23:00;28.75;;;13.18;;
46090;SDS011;31826;53.572;10.170;2022-11-15T08:25:27;27.10;;;13.35;;
46090;SDS011;31826;53.572;10.170;2022-11-15T08:27:55;28.77;;;12.30;;
46090;SDS011;31826;53.572;10.170;2022-11-15T08:30:22;25.10;;;12.32;;
46090;SDS011;31826;53.572;10.170;2022-11-15T08:32:48;27.63;;;12.90;;
46090;SDS011;31826;53.572;10.170;2022-11-15T08:35:15;26.50;;;12.23;;
46090;SDS011;31826;53.572;10.170;2022-11-15T08:37:41;24.52;;;11.85;;
46090;SDS011;31826;53.572;10.170;2022-11-15T08:40:07;23.50;;;11.88;;
46090;SDS011;31826;53.572;10.170;2022-11-15T08:42:34;25.58;;;12.50;;
46090;SDS011;31826;53.572;10.170;2022-11-15T08:45:00;32.88;;;13.73;;
46090;SDS011;31826;53.572;10.170;2022-11-15T08:47:27;26.83;;;12.95;;
46090;SDS011;31826;53.572;10.170;2022-11-15T08:49:52;25.63;;;12.05;;
46090;SDS011;31826;53.572;10.170;2022-11-15T08:52:18;25.95;;;12.18;;
46090;SDS011;31826;53.572;10.170;2022-11-15T08:54:44;24.92;;;12.18;;
46090;SDS011;31826;53.572;10.170;2022-11-15T08:57:10;24.70;;;11.97;;
46090;SDS011;31826;53.572;10.170;2022-11-15T08:59:36;24.88;;;11.88;;
46090;SDS011;31826;53.572;10.170;2022-11-15T09:02:02;25.20;;;12.15;;
46090;SDS011;31826;53.572;10.170;2022-11-15T09:04:29;24.73;;;12.32;;
46090;SDS011;31826;53.572;10.170;2022-11-15T09:06:54;31.17;;;13.95;;
46090;SDS011;31826;53.572;10.170;2022-11-15T09:09:20;26.92;;;13.00;;
46090;SDS011;31826;53.572;10.170;2022-11-15T09:11:46;29.00;;;12.43;;
46090;SDS011;31826;53.572;10.170;2022-11-15T09:14:12;25.08;;;12.25;;
46090;SDS011;31826;53.572;10.170;2022-11-15T09:16:39;25.75;;;12.30;;
46090;SDS011;31826;53.572;10.170;2022-11-15T09:19:05;24.47;;;11.40;;
46090;SDS011;31826;53.572;10.170;2022-11-15T09:21:31;24.13;;;11.63;;
46090;SDS011;31826;53.572;10.170;2022-11-15T09:23:58;27.60;;;12.70;;
46090;SDS011;31826;53.572;10.170;2022-11-15T09:26:24;27.53;;;12.50;;
46090;SDS011;31826;53.572;10.170;2022-11-15T09:28:50;27.07;;;11.77;;
46090;SDS011;31826;53.572;10.170;2022-11-15T09:31:16;23.17;;;10.73;;
46090;SDS011;31826;53.572;10.170;2022-11-15T09:33:44;25.03;;;11.47;;
46090;SDS011;31826;53.572;10.170;2022-11-15T09:36:11;21.95;;;11.27;;
46090;SDS011;31826;53.572;10.170;2022-11-15T09:38:37;29.75;;;14.68;;
46090;SDS011;31826;53.572;10.170;2022-11-15T09:49:17;22.73;;;10.38;;
46090;SDS011;31826;53.572;10.170;2022-11-15T09:51:44;27.17;;;11.13;;
46090;SDS011;31826;53.572;10.170;2022-11-15T09:57:02;23.38;;;11.57;;
46090;SDS011;31826;53.572;10.170;2022-11-15T10:02:32;25.65;;;12.45;;
46090;SDS011;31826;53.572;10.170;2022-11-15T10:05:11;23.63;;;10.70;;
46090;SDS011;31826;53.572;10.170;2022-11-15T10:07:46;20.02;;;9.65;;
46090;SDS011;31826;53.572;10.170;2022-11-15T10:10:39;20.20;;;9.60;;
46090;SDS011;31826;53.572;10.170;2022-11-15T10:13:13;21.15;;;9.57;;
46090;SDS011;31826;53.572;10.170;2022-11-15T10:15:48;20.30;;;10.07;;
46090;SDS011;31826;53.572;10.170;2022-11-15T10:18:35;19.15;;;8.68;;
46090;SDS011;31826;53.572;10.170;2022-11-15T10:21:21;20.75;;;10.43;;
46090;SDS011;31826;53.572;10.170;2022-11-15T10:23:54;19.50;;;9.80;;
46090;SDS011;31826;53.572;10.170;2022-11-15T10:26:20;20.90;;;9.57;;
46090;SDS011;31826;53.572;10.170;2022-11-15T10:28:48;21.63;;;9.88;;
46090;SDS011;31826;53.572;10.170;2022-11-15T10:36:39;20.17;;;9.20;;
46090;SDS011;31826;53.572;10.170;2022-11-15T10:39:19;20.83;;;9.55;;
46090;SDS011;31826;53.572;10.170;2022-11-15T10:41:45;20.03;;;9.60;;
46090;SDS011;31826;53.572;10.170;2022-11-15T10:47:16;18.93;;;9.30;;
46090;SDS011;31826;53.572;10.170;2022-11-15T10:49:53;18.63;;;9.43;;
46090;SDS011;31826;53.572;10.170;2022-11-15T10:52:31;19.13;;;9.05;;
46090;SDS011;31826;53.572;10.170;2022-11-15T10:55:04;17.35;;;8.70;;
46090;SDS011;31826;53.572;10.170;2022-11-15T10:57:55;21.25;;;10.73;;
46090;SDS011;31826;53.572;10.170;2022-11-15T11:00:33;19.17;;;9.80;;
46090;SDS011;31826;53.572;10.170;2022-11-15T11:03:03;18.92;;;9.63;;
46090;SDS011;31826;53.572;10.170;2022-11-15T11:05:33;18.98;;;9.50;;
46090;SDS011;31826;53.572;10.170;2022-11-15T11:08:03;25.58;;;12.60;;
46090;SDS011;31826;53.572;10.170;2022-11-15T11:10:32;16.95;;;8.65;;
46090;SDS011;31826;53.572;10.170;2022-11-15T11:13:59;31.77;;;14.63;;
46090;SDS011;31826;53.572;10.170;2022-11-15T11:21:14;18.90;;;8.67;;
46090;SDS011;31826;53.572;10.170;2022-11-15T11:23:54;20.30;;;8.50;;
46090;SDS011;31826;53.572;10.170;2022-11-15T11:29:12;15.40;;;7.77;;
46090;SDS011;31826;53.572;10.170;2022-11-15T11:31:53;17.95;;;7.95;;
46090;SDS011;31826;53.572;10.170;2022-11-15T11:37:52;16.75;;;7.93;;
46090;SDS011;31826;53.572;10.170;2022-11-15T11:40:43;18.65;;;8.02;;
46090;SDS011;31826;53.572;10.170;2022-11-15T11:51:08;18.50;;;8.70;;
46090;SDS011;31826;53.572;10.170;2022-11-15T11:53:41;16.73;;;8.23;;
46090;SDS011;31826;53.572;10.170;2022-11-15T11:56:27;18.80;;;8.77;;
46090;SDS011;31826;53.572;10.170;2022-11-15T11:59:17;17.65;;;8.63;;
46090;SDS011;31826;53.572;10.170;2022-11-15T12:01:56;16.27;;;8.00;;
46090;SDS011;31826;53.572;10.170;2022-11-15T12:04:30;17.33;;;8.23;;
46090;SDS011;31826;53.572;10.170;2022-11-15T12:10:04;18.85;;;8.73;;
46090;SDS011;31826;53.572;10.170;2022-11-15T12:15:53;18.73;;;8.27;;
46090;SDS011;31826;53.572;10.170;2022-11-15T12:18:27;16.17;;;7.80;;
46090;SDS011;31826;53.572;10.170;2022-11-15T12:20:55;17.90;;;7.93;;
46090;SDS011;31826;53.572;10.170;2022-11-15T12:23:30;16.00;;;8.07;;
46090;SDS011;31826;53.572;10.170;2022-11-15T12:26:04;18.33;;;8.60;;
46090;SDS011;31826;53.572;10.170;2022-11-15T12:28:57;19.25;;;9.45;;
46090;SDS011;31826;53.572;10.170;2022-11-15T12:34:47;16.17;;;7.75;;
46090;SDS011;31826;53.572;10.170;2022-11-15T12:36:48;15.65;;;7.72;;
46090;SDS011;31826;53.572;10.170;2022-11-15T12:39:15;15.25;;;7.78;;
46090;SDS011;31826;53.572;10.170;2022-11-15T12:41:43;16.73;;;8.30;;
46090;SDS011;31826;53.572;10.170;2022-11-15T13:04:50;15.20;;;6.55;;
46090;SDS011;31826;53.572;10.170;2022-11-15T13:07:54;15.95;;;6.80;;
46090;SDS011;31826;53.572;10.170;2022-11-15T13:22:41;13.98;;;7.20;;
46090;SDS011;31826;53.572;10.170;2022-11-15T13:25:18;16.63;;;7.45;;
46090;SDS011;31826;53.572;10.170;2022-11-15T13:27:48;13.33;;;6.57;;
46090;SDS011;31826;53.572;10.170;2022-11-15T13:30:19;13.30;;;6.88;;
46090;SDS011;31826;53.572;10.170;2022-11-15T13:32:47;15.90;;;6.72;;
46090;SDS011;31826;53.572;10.170;2022-11-15T13:35:26;16.67;;;7.00;;
46090;SDS011;31826;53.572;10.170;2022-11-15T13:37:54;17.15;;;7.00;;
46090;SDS011;31826;53.572;10.170;2022-11-15T13:42:52;13.93;;;6.53;;
46090;SDS011;31826;53.572;10.170;2022-11-15T13:45:19;16.45;;;6.93;;
46090;SDS011;31826;53.572;10.170;2022-11-15T13:47:50;12.52;;;6.32;;
46090;SDS011;31826;53.572;10.170;2022-11-15T13:50:17;12.90;;;6.33;;
46090;SDS011;31826;53.572;10.170;2022-11-15T13:52:45;14.57;;;6.82;;
46090;SDS011;31826;53.572;10.170;2022-11-15T13:55:14;13.13;;;6.68;;
46090;SDS011;31826;53.572;10.170;2022-11-15T13:57:50;14.98;;;6.50;;
46090;SDS011;31826;53.572;10.170;2022-11-15T14:02:50;16.00;;;6.45;;
46090;SDS011;31826;53.572;10.170;2022-11-15T14:07:57;15.38;;;6.57;;
46090;SDS011;31826;53.572;10.170;2022-11-15T14:10:34;12.63;;;6.03;;
46090;SDS011;31826;53.572;10.170;2022-11-15T14:13:02;13.43;;;6.32;;
46090;SDS011;31826;53.572;10.170;2022-11-15T14:17:57;14.35;;;6.55;;
46090;SDS011;31826;53.572;10.170;2022-11-15T14:22:56;12.97;;;6.07;;
46090;SDS011;31826;53.572;10.170;2022-11-15T14:25:28;13.05;;;6.25;;
46090;SDS011;31826;53.572;10.170;2022-11-15T14:30:53;14.80;;;6.57;;
46090;SDS011;31826;53.572;10.170;2022-11-15T14:36:03;14.18;;;6.10;;
46090;SDS011;31826;53.572;10.170;2022-11-15T14:38:35;12.90;;;6.28;;
46090;SDS011;31826;53.572;10.170;2022-11-15T14:41:01;13.10;;;6.10;;
46090;SDS011;31826;53.572;10.170;2022-11-15T14:43:27;12.73;;;5.97;;
46090;SDS011;31826;53.572;10.170;2022-11-15T14:45:52;13.73;;;6.33;;
46090;SDS011;31826;53.572;10.170;2022-11-15T14:48:18;15.77;;;6.17;;
46090;SDS011;31826;53.572;10.170;2022-11-15T14:50:44;13.30;;;5.83;;
46090;SDS011;31826;53.572;10.170;2022-11-15T14:53:16;11.70;;;5.43;;
46090;SDS011;31826;53.572;10.170;2022-11-15T14:55:43;11.50;;;5.78;;
46090;SDS011;31826;53.572;10.170;2022-11-15T14:58:09;13.60;;;5.72;;
46090;SDS011;31826;53.572;10.170;2022-11-15T15:00:38;12.83;;;6.67;;
46090;SDS011;31826;53.572;10.170;2022-11-15T15:03:05;14.18;;;6.78;;
46090;SDS011;31826;53.572;10.170;2022-11-15T15:08:02;12.85;;;5.75;;
46090;SDS011;31826;53.572;10.170;2022-11-15T15:10:35;14.73;;;5.72;;
46090;SDS011;31826;53.572;10.170;2022-11-15T15:13:03;14.38;;;6.38;;
46090;SDS011;31826;53.572;10.170;2022-11-15T15:15:33;12.65;;;6.20;;
46090;SDS011;31826;53.572;10.170;2022-11-15T15:18:01;14.27;;;6.22;;
46090;SDS011;31826;53.572;10.170;2022-11-15T15:20:27;12.63;;;5.70;;
46090;SDS011;31826;53.572;10.170;2022-11-15T15:22:54;11.52;;;5.82;;
46090;SDS011;31826;53.572;10.170;2022-11-15T15:25:22;14.60;;;5.80;;
46090;SDS011;31826;53.572;10.170;2022-11-15T15:27:48;13.63;;;6.40;;
46090;SDS011;31826;53.572;10.170;2022-11-15T15:30:14;13.93;;;5.90;;
46090;SDS011;31826;53.572;10.170;2022-11-15T15:32:40;15.15;;;6.47;;
46090;SDS011;31826;53.572;10.170;2022-11-15T15:35:06;13.18;;;5.90;;
46090;SDS011;31826;53.572;10.170;2022-11-15T15:37:36;13.73;;;6.50;;
46090;SDS011;31826;53.572;10.170;2022-11-15T15:40:01;16.10;;;7.47;;
46090;SDS011;31826;53.572;10.170;2022-11-15T15:42:27;12.63;;;5.60;;
46090;SDS011;31826;53.572;10.170;2022-11-15T15:44:53;13.83;;;6.97;;
46090;SDS011;31826;53.572;10.170;2022-11-15T15:47:22;14.93;;;6.70;;
46090;SDS011;31826;53.572;10.170;2022-11-15T15:49:50;13.18;;;6.22;;
46090;SDS011;31826;53.572;10.170;2022-11-15T15:52:16;14.48;;;6.18;;
46090;SDS011;31826;53.572;10.170;2022-11-15T15:54:42;12.65;;;5.93;;
46090;SDS011;31826;53.572;10.170;2022-11-15T15:57:08;13.07;;;6.60;;
46090;SDS011;31826;53.572;10.170;2022-11-15T15:59:37;14.68;;;5.90;;
46090;SDS011;31826;53.572;10.170;2022-11-15T16:02:03;12.67;;;6.87;;
46090;SDS011;31826;53.572;10.170;2022-11-15T16:04:28;13.30;;;6.57;;
46090;SDS011;31826;53.572;10.170;2022-11-15T16:06:58;14.57;;;7.05;;
46090;SDS011;31826;53.572;10.170;2022-11-15T16:09:25;16.45;;;7.45;;
46090;SDS011;31826;53.572;10.170;2022-11-15T16:12:09;17.17;;;8.00;;
46090;SDS011;31826;53.572;10.170;2022-11-15T16:14:35;14.20;;;6.50;;
46090;SDS011;31826;53.572;10.170;2022-11-15T16:17:01;14.18;;;6.88;;
46090;SDS011;31826;53.572;10.170;2022-11-15T16:19:27;15.10;;;7.05;;
46090;SDS011;31826;53.572;10.170;2022-11-15T16:21:53;15.00;;;6.60;;
46090;SDS011;31826;53.572;10.170;2022-11-15T16:24:19;13.77;;;7.32;;
46090;SDS011;31826;53.572;10.170;2022-11-15T16:26:46;13.57;;;6.72;;
46090;SDS011;31826;53.572;10.170;2022-11-15T16:29:13;16.90;;;8.73;;
46090;SDS011;31826;53.572;10.170;2022-11-15T16:31:39;15.10;;;7.07;;
46090;SDS011;31826;53.572;10.170;2022-11-15T16:34:05;12.30;;;6.47;;
46090;SDS011;31826;53.572;10.170;2022-11-15T16:36:32;15.00;;;8.25;;